Time;durP1;ratioP1;P1;durP2;ratioP2;P2;SDS_P1;SDS_P2;PMS_P1;PMS_P2;Temp;Humidity;BMP_temperature;BMP_pressure;BME280_temperature;BME280_humidity;BME280_pressure;Samples;Min_cycle;Max_cycle;Signal;HPM_P1;HPM_P2
2023/01/09 00:01:34;;;;;;;4.10;2.25;;;;;;;;;;5070605;28;20040;-71
2023/01/09 00:04:00;;;;;;;5.00;2.83;;;;;;;;;;5078457;28;20037;-71
2023/01/09 00:06:27;;;;;;;9.15;3.33;;;;;;;;;;5066546;28;20065;-70
2023/01/09 00:08:53;;;;;;;6.32;2.85;;;;;;;;;;5064387;28;20131;-70
2023/01/09 00:11:19;;;;;;;3.60;2.65;;;;;;;;;;5059703;28;20040;-71
2023/01/09 00:13:46;;;;;;;4.90;3.05;;;;;;;;;;5060939;28;20040;-71
2023/01/09 00:16:12;;;;;;;4.15;2.30;;;;;;;;;;5053679;28;20076;-70
2023/01/09 00:18:39;;;;;;;3.58;2.03;;;;;;;;;;5051910;28;20093;-71
2023/01/09 00:21:06;;;;;;;4.70;2.33;;;;;;;;;;5053550;28;20037;-71
2023/01/09 00:23:33;;;;;;;3.85;2.25;;;;;;;;;;5056640;28;20427;-71
2023/01/09 00:26:02;;;;;;;3.33;1.95;;;;;;;;;;5063951;28;20119;-71
2023/01/09 00:28:28;;;;;;;7.28;2.05;;;;;;;;;;5058604;28;20560;-71
2023/01/09 00:30:55;;;;;;;4.85;1.95;;;;;;;;;;5058814;28;20036;-70
2023/01/09 00:33:24;;;;;;;7.47;2.33;;;;;;;;;;5056682;28;20040;-71
2023/01/09 00:35:50;;;;;;;4.35;2.03;;;;;;;;;;5054982;28;20029;-70
2023/01/09 00:38:16;;;;;;;5.85;2.20;;;;;;;;;;5052517;28;20116;-71
2023/01/09 00:40:42;;;;;;;7.63;2.28;;;;;;;;;;5055144;28;20523;-71
2023/01/09 00:43:08;;;;;;;5.82;2.45;;;;;;;;;;5055997;28;20269;-71
2023/01/09 00:45:34;;;;;;;4.22;2.10;;;;;;;;;;5055936;28;20135;-71
2023/01/09 00:48:07;;;;;;;6.05;2.15;;;;;;;;;;5051683;28;20040;-71
2023/01/09 00:50:33;;;;;;;;;;;;;;;;;;5052807;28;20542;-70
2023/01/09 00:53:01;;;;;;;4.07;2.10;;;;;;;;;;5056031;28;19916;-72
2023/01/09 00:55:28;;;;;;;3.85;2.20;;;;;;;;;;5056644;28;20502;-71
2023/01/09 00:57:55;;;;;;;5.43;1.88;;;;;;;;;;5060116;28;20049;-71
2023/01/09 01:00:21;;;;;;;3.58;1.90;;;;;;;;;;5053545;28;20044;-71
2023/01/09 01:02:47;;;;;;;4.15;1.90;;;;;;;;;;5055325;28;20044;-70
2023/01/09 01:07:58;;;;;;;5.07;2.03;;;;;;;;;;5056693;28;20124;-71
2023/01/09 01:10:25;;;;;;;4.88;2.40;;;;;;;;;;5053537;28;20032;-71
2023/01/09 01:12:51;;;;;;;3.80;2.03;;;;;;;;;;5053787;28;20533;-71
2023/01/09 01:15:18;;;;;;;5.15;2.47;;;;;;;;;;5058556;28;20037;-70
2023/01/09 01:17:44;;;;;;;5.35;2.35;;;;;;;;;;5054363;28;20457;-71
2023/01/09 01:20:12;;;;;;;5.18;2.53;;;;;;;;;;5064919;28;20037;-71
2023/01/09 01:22:41;;;;;;;9.90;2.97;;;;;;;;;;5067252;28;20037;-71
2023/01/09 01:25:07;;;;;;;5.00;2.17;;;;;;;;;;5059397;28;20098;-71
2023/01/09 01:27:33;;;;;;;4.07;2.05;;;;;;;;;;5060608;28;20514;-71
2023/01/09 01:29:59;;;;;;;4.93;2.08;;;;;;;;;;5062170;28;20041;-71
2023/01/09 01:32:26;;;;;;;7.30;2.33;;;;;;;;;;5069381;28;20059;-71
2023/01/09 01:34:52;;;;;;;4.20;2.17;;;;;;;;;;5066702;28;20048;-71
2023/01/09 01:37:18;;;;;;;4.35;2.10;;;;;;;;;;5058355;28;20037;-71
2023/01/09 01:39:44;;;;;;;7.07;2.72;;;;;;;;;;5077986;28;20048;-71
2023/01/09 01:42:14;;;;;;;4.40;2.47;;;;;;;;;;5058654;28;20047;-70
2023/01/09 01:45:00;;;;;;;5.00;2.38;;;;;;;;;;5060560;28;20048;-71
2023/01/09 01:47:45;;;;;;;5.55;2.63;;;;;;;;;;5061144;28;20045;-71
2023/01/09 01:50:26;;;;;;;6.53;2.63;;;;;;;;;;5058568;28;20076;-71
2023/01/09 01:52:56;;;;;;;7.50;2.35;;;;;;;;;;5057521;28;20076;-71
2023/01/09 01:55:22;;;;;;;5.72;2.28;;;;;;;;;;5060272;28;20033;-70
2023/01/09 01:57:50;;;;;;;7.32;2.45;;;;;;;;;;5058828;28;20068;-70
2023/01/09 02:00:17;;;;;;;5.13;2.45;;;;;;;;;;5059749;28;20047;-71
2023/01/09 02:02:44;;;;;;;4.78;2.33;;;;;;;;;;5062086;28;20524;-71
2023/01/09 02:05:11;;;;;;;4.55;2.22;;;;;;;;;;5062479;28;20094;-70
2023/01/09 02:07:37;;;;;;;7.15;2.40;;;;;;;;;;5060719;28;20040;-71
2023/01/09 02:10:03;;;;;;;8.52;2.00;;;;;;;;;;5059757;28;20052;-71
2023/01/09 02:12:30;;;;;;;9.05;2.75;;;;;;;;;;5068666;28;20063;-71
2023/01/09 02:15:06;;;;;;;5.93;1.98;;;;;;;;;;5064575;28;20100;-71
2023/01/09 02:17:32;;;;;;;4.50;1.70;;;;;;;;;;5062628;28;20403;-71
2023/01/09 02:19:58;;;;;;;6.05;2.47;;;;;;;;;;5057172;28;20123;-71
2023/01/09 02:22:44;;;;;;;8.30;2.58;;;;;;;;;;5063585;28;20319;-71
2023/01/09 02:25:16;;;;;;;8.38;3.20;;;;;;;;;;5063956;28;20380;-71
2023/01/09 02:27:42;;;;;;;6.85;2.50;;;;;;;;;;5062765;28;20036;-71
2023/01/09 02:30:28;;;;;;;6.05;2.83;;;;;;;;;;5061458;28;20029;-70
2023/01/09 02:33:08;;;;;;;8.00;2.72;;;;;;;;;;5054635;28;20133;-71
2023/01/09 02:35:41;;;;;;;8.50;2.92;;;;;;;;;;5060321;28;20099;-71
2023/01/09 02:38:27;;;;;;;7.47;2.72;;;;;;;;;;5058598;28;20036;-71
2023/01/09 02:40:56;;;;;;;4.20;2.15;;;;;;;;;;5057913;28;20537;-71
2023/01/09 02:43:22;;;;;;;6.55;2.30;;;;;;;;;;5065019;28;20051;-71
2023/01/09 02:45:48;;;;;;;4.22;2.45;;;;;;;;;;5059902;28;20041;-71
2023/01/09 02:48:14;;;;;;;5.47;2.35;;;;;;;;;;5058428;28;20038;-71
2023/01/09 02:50:59;;;;;;;5.65;2.28;;;;;;;;;;5060312;28;20490;-71
2023/01/09 02:53:45;;;;;;;6.72;2.78;;;;;;;;;;5060834;28;20043;-71
2023/01/09 02:56:30;;;;;;;7.00;2.58;;;;;;;;;;5058452;28;20387;-71
2023/01/09 02:58:56;;;;;;;9.40;2.88;;;;;;;;;;5062938;28;20093;-71
2023/01/09 03:01:28;;;;;;;9.07;2.90;;;;;;;;;;5063792;28;20509;-71
2023/01/09 03:04:11;;;;;;;6.25;2.22;;;;;;;;;;5059879;28;20119;-70
2023/01/09 03:06:40;;;;;;;8.73;2.50;;;;;;;;;;5067865;28;20037;-71
2023/01/09 03:09:09;;;;;;;8.48;2.67;;;;;;;;;;5061638;28;20049;-70
2023/01/09 03:11:39;;;;;;;5.15;2.08;;;;;;;;;;5061044;28;20044;-71
2023/01/09 03:14:09;;;;;;;5.75;2.63;;;;;;;;;;5066057;28;20120;-71
2023/01/09 03:16:36;;;;;;;7.63;2.75;;;;;;;;;;5059939;28;20749;-71
2023/01/09 03:19:05;;;;;;;13.82;2.75;;;;;;;;;;5058029;28;20040;-72
2023/01/09 03:21:32;;;;;;;6.15;2.53;;;;;;;;;;5059806;28;20045;-71
2023/01/09 03:23:59;;;;;;;10.77;2.65;;;;;;;;;;5074268;28;20042;-72
2023/01/09 03:26:27;;;;;;;5.75;2.25;;;;;;;;;;5056636;28;20036;-71
2023/01/09 03:28:54;;;;;;;4.28;2.25;;;;;;;;;;5064033;28;20046;-70
2023/01/09 03:31:20;;;;;;;8.75;2.55;;;;;;;;;;5063342;28;20494;-71
2023/01/09 03:33:46;;;;;;;4.88;2.40;;;;;;;;;;5063403;28;20190;-71
2023/01/09 03:36:13;;;;;;;6.82;2.58;;;;;;;;;;5063464;28;20064;-71
2023/01/09 03:38:40;;;;;;;4.78;2.28;;;;;;;;;;5066564;28;20043;-71
2023/01/09 03:41:06;;;;;;;4.72;2.08;;;;;;;;;;5066024;28;20044;-71
2023/01/09 03:43:32;;;;;;;7.97;2.83;;;;;;;;;;5059292;28;20443;-71
2023/01/09 03:45:59;;;;;;;7.50;2.90;;;;;;;;;;5066477;28;20105;-71
2023/01/09 03:48:25;;;;;;;7.03;2.40;;;;;;;;;;5061004;28;20032;-70
2023/01/09 03:50:52;;;;;;;8.35;2.78;;;;;;;;;;5062355;28;20486;-71
2023/01/09 03:53:19;;;;;;;5.25;2.83;;;;;;;;;;5074017;28;20118;-70
2023/01/09 03:55:46;;;;;;;6.97;2.28;;;;;;;;;;5058255;28;20581;-71
2023/01/09 03:58:13;;;;;;;10.93;4.07;;;;;;;;;;5066893;28;20091;-71
2023/01/09 04:00:39;;;;;;;6.93;3.40;;;;;;;;;;5057268;28;20036;-70
2023/01/09 04:03:06;;;;;;;6.82;2.83;;;;;;;;;;5062441;28;20410;-71
2023/01/09 04:05:32;;;;;;;14.07;3.00;;;;;;;;;;5060633;28;20045;-71
2023/01/09 04:07:58;;;;;;;7.65;2.60;;;;;;;;;;5058608;28;20037;-71
2023/01/09 04:10:24;;;;;;;5.20;2.58;;;;;;;;;;5057321;28;20072;-70
2023/01/09 04:12:50;;;;;;;10.52;2.90;;;;;;;;;;5056001;28;20044;-70
2023/01/09 04:15:17;;;;;;;9.13;3.65;;;;;;;;;;5057430;28;20060;-70
2023/01/09 04:17:43;;;;;;;9.30;2.90;;;;;;;;;;5068404;28;20032;-70
2023/01/09 04:20:09;;;;;;;9.98;3.08;;;;;;;;;;5059953;28;20034;-70
2023/01/09 04:22:35;;;;;;;9.43;3.60;;;;;;;;;;5063077;28;20040;-70
2023/01/09 04:25:02;;;;;;;4.95;2.60;;;;;;;;;;5064850;28;20120;-71
2023/01/09 04:27:28;;;;;;;7.07;2.95;;;;;;;;;;5064965;28;20383;-70
2023/01/09 04:29:54;;;;;;;5.22;2.83;;;;;;;;;;5069955;28;20040;-71
2023/01/09 04:32:20;;;;;;;7.63;3.50;;;;;;;;;;5051704;28;20040;-70
2023/01/09 04:34:46;;;;;;;10.32;3.22;;;;;;;;;;5062996;28;20078;-70
2023/01/09 04:37:12;;;;;;;5.15;3.25;;;;;;;;;;5060824;28;20394;-71
2023/01/09 04:39:42;;;;;;;7.05;3.55;;;;;;;;;;5061023;28;20041;-70
2023/01/09 04:42:08;;;;;;;5.68;3.28;;;;;;;;;;5061316;28;20044;-70
2023/01/09 04:44:35;;;;;;;7.20;3.28;;;;;;;;;;5065466;28;20040;-71
2023/01/09 04:47:01;;;;;;;5.93;3.42;;;;;;;;;;5063586;28;20045;-70
2023/01/09 04:49:27;;;;;;;6.18;3.03;;;;;;;;;;5065942;28;20045;-70
2023/01/09 04:51:53;;;;;;;9.30;3.95;;;;;;;;;;5062749;28;20047;-71
2023/01/09 04:54:20;;;;;;;13.75;4.38;;;;;;;;;;5060981;28;20048;-71
2023/01/09 04:56:46;;;;;;;8.07;3.30;;;;;;;;;;5076478;28;20106;-72
2023/01/09 04:59:12;;;;;;;8.45;3.75;;;;;;;;;;5071061;28;20076;-71
2023/01/09 05:01:39;;;;;;;8.18;3.25;;;;;;;;;;5065676;28;20068;-70
2023/01/09 05:04:05;;;;;;;8.48;3.30;;;;;;;;;;5068548;28;20039;-70
2023/01/09 05:06:32;;;;;;;6.28;3.60;;;;;;;;;;5069920;28;20043;-70
2023/01/09 05:08:59;;;;;;;4.35;2.88;;;;;;;;;;5067412;28;20051;-70
2023/01/09 05:11:25;;;;;;;8.77;4.45;;;;;;;;;;5065449;28;20040;-71
2023/01/09 05:13:52;;;;;;;7.00;3.38;;;;;;;;;;5066848;28;20557;-70
2023/01/09 05:16:18;;;;;;;6.70;3.85;;;;;;;;;;5062782;28;20036;-70
2023/01/09 05:18:44;;;;;;;8.25;3.53;;;;;;;;;;5066060;28;20047;-71
2023/01/09 05:21:10;;;;;;;9.98;4.13;;;;;;;;;;5065036;28;20037;-70
2023/01/09 05:23:37;;;;;;;9.70;3.60;;;;;;;;;;5067709;28;20068;-71
2023/01/09 05:26:03;;;;;;;7.18;3.75;;;;;;;;;;5057455;28;20556;-70
2023/01/09 05:28:29;;;;;;;9.45;4.78;;;;;;;;;;5076965;28;20052;-70
2023/01/09 05:30:56;;;;;;;9.30;4.47;;;;;;;;;;5062550;28;20033;-71
2023/01/09 05:33:22;;;;;;;6.40;4.18;;;;;;;;;;5064164;28;20474;-70
2023/01/09 05:35:48;;;;;;;9.68;4.22;;;;;;;;;;5060824;28;20247;-70
2023/01/09 05:38:14;;;;;;;12.30;3.80;;;;;;;;;;5064415;28;20040;-70
2023/01/09 05:40:40;;;;;;;10.35;5.00;;;;;;;;;;5059368;28;20043;-70
2023/01/09 05:43:07;;;;;;;6.63;4.50;;;;;;;;;;5065122;28;20494;-70
2023/01/09 05:45:33;;;;;;;6.78;4.43;;;;;;;;;;5057401;28;20434;-70
2023/01/09 05:47:59;;;;;;;9.90;5.10;;;;;;;;;;5062549;28;20475;-71
2023/01/09 05:50:25;;;;;;;9.68;5.05;;;;;;;;;;5066821;28;20094;-71
2023/01/09 05:52:51;;;;;;;8.73;5.07;;;;;;;;;;5066048;28;20498;-70
2023/01/09 05:55:17;;;;;;;7.65;5.03;;;;;;;;;;5064075;28;20097;-70
2023/01/09 05:57:43;;;;;;;8.95;5.38;;;;;;;;;;5060478;28;20056;-71
2023/01/09 06:00:10;;;;;;;10.25;6.22;;;;;;;;;;5059947;28;20076;-70
2023/01/09 06:02:36;;;;;;;7.60;5.53;;;;;;;;;;5065524;28;20043;-70
2023/01/09 06:05:02;;;;;;;12.73;6.82;;;;;;;;;;5058037;28;20047;-70
2023/01/09 06:07:28;;;;;;;10.77;6.97;;;;;;;;;;5061425;28;20552;-71
2023/01/09 06:09:54;;;;;;;12.50;7.13;;;;;;;;;;5053282;28;20036;-70
2023/01/09 06:12:21;;;;;;;10.20;6.38;;;;;;;;;;5059870;28;20040;-71
2023/01/09 06:14:47;;;;;;;18.95;8.15;;;;;;;;;;5065212;28;20486;-70
2023/01/09 06:17:13;;;;;;;12.52;8.05;;;;;;;;;;5067286;28;20102;-70
2023/01/09 06:19:39;;;;;;;14.00;8.35;;;;;;;;;;5056113;28;20046;-71
2023/01/09 06:22:05;;;;;;;12.65;8.90;;;;;;;;;;5060044;28;20068;-71
2023/01/09 06:24:31;;;;;;;19.58;10.35;;;;;;;;;;5063856;28;20147;-71
2023/01/09 06:26:57;;;;;;;15.93;10.55;;;;;;;;;;5058454;28;20319;-71
2023/01/09 06:29:23;;;;;;;15.98;10.50;;;;;;;;;;5053283;28;20044;-71
2023/01/09 06:31:49;;;;;;;14.13;8.68;;;;;;;;;;5058066;28;20391;-70
2023/01/09 06:34:16;;;;;;;19.88;9.60;;;;;;;;;;5058830;28;20041;-71
2023/01/09 06:36:42;;;;;;;17.63;9.35;;;;;;;;;;5058668;28;20041;-70
2023/01/09 06:39:08;;;;;;;14.27;10.23;;;;;;;;;;5059664;28;20371;-71
2023/01/09 06:41:34;;;;;;;14.73;9.82;;;;;;;;;;5066553;28;20514;-70
2023/01/09 06:44:00;;;;;;;13.57;9.77;;;;;;;;;;5060432;28;20028;-71
2023/01/09 06:46:26;;;;;;;13.75;9.10;;;;;;;;;;5054635;28;20049;-70
2023/01/09 06:48:52;;;;;;;17.60;10.68;;;;;;;;;;5056636;28;20048;-71
2023/01/09 06:51:18;;;;;;;13.02;10.85;;;;;;;;;;5059206;28;20598;-71
2023/01/09 06:53:45;;;;;;;13.00;9.57;;;;;;;;;;5057022;28;20083;-70
2023/01/09 06:56:11;;;;;;;20.05;11.82;;;;;;;;;;5052083;28;20041;-70
2023/01/09 06:58:37;;;;;;;16.67;10.88;;;;;;;;;;5071238;28;20064;-70
2023/01/09 07:01:03;;;;;;;13.82;10.00;;;;;;;;;;5057084;28;20043;-70
2023/01/09 07:03:29;;;;;;;13.25;9.05;;;;;;;;;;5056739;28;20040;-71
2023/01/09 07:05:55;;;;;;;14.27;10.73;;;;;;;;;;5062901;28;20047;-71
2023/01/09 07:08:22;;;;;;;12.48;9.20;;;;;;;;;;5058929;28;20735;-71
2023/01/09 07:10:48;;;;;;;15.20;10.05;;;;;;;;;;5060656;28;20037;-70
2023/01/09 07:13:14;;;;;;;20.20;10.52;;;;;;;;;;5053255;28;20175;-70
2023/01/09 07:15:40;;;;;;;11.88;9.52;;;;;;;;;;5053336;28;20043;-71
2023/01/09 07:18:06;;;;;;;10.38;9.18;;;;;;;;;;5056319;28;20247;-70
2023/01/09 07:20:32;;;;;;;15.70;10.43;;;;;;;;;;5062250;28;20039;-71
2023/01/09 07:22:58;;;;;;;15.20;10.68;;;;;;;;;;5065248;28;20486;-70
2023/01/09 07:25:24;;;;;;;17.90;12.02;;;;;;;;;;5059357;28;20040;-71
2023/01/09 07:27:50;;;;;;;19.50;12.50;;;;;;;;;;5062476;28;20479;-71
2023/01/09 07:30:17;;;;;;;18.55;12.45;;;;;;;;;;5056759;28;20033;-71
2023/01/09 07:32:43;;;;;;;19.50;12.32;;;;;;;;;;5056063;28;20033;-72
2023/01/09 07:35:10;;;;;;;16.52;11.50;;;;;;;;;;5065024;28;20213;-71
2023/01/09 07:37:36;;;;;;;17.60;10.57;;;;;;;;;;5064054;28;20031;-71
2023/01/09 07:40:03;;;;;;;13.23;9.32;;;;;;;;;;5059013;28;20075;-71
2023/01/09 07:42:29;;;;;;;13.18;8.85;;;;;;;;;;5062264;28;20447;-70
2023/01/09 07:44:55;;;;;;;18.85;11.98;;;;;;;;;;5064469;28;20036;-71
2023/01/09 07:47:21;;;;;;;13.60;9.55;;;;;;;;;;5063373;28;20058;-71
2023/01/09 07:49:47;;;;;;;19.77;8.60;;;;;;;;;;5062874;28;20044;-70
2023/01/09 07:52:13;;;;;;;14.68;8.07;;;;;;;;;;5053958;28;20040;-71
2023/01/09 07:54:40;;;;;;;14.50;8.70;;;;;;;;;;5051874;28;20068;-71
2023/01/09 07:57:06;;;;;;;12.60;8.77;;;;;;;;;;5056506;28;20063;-71
2023/01/09 07:59:32;;;;;;;15.32;9.70;;;;;;;;;;5058016;28;20039;-71
2023/01/09 08:01:59;;;;;;;12.40;7.70;;;;;;;;;;5051259;28;20390;-70
2023/01/09 08:04:25;;;;;;;13.90;7.88;;;;;;;;;;5064931;28;20045;-70
2023/01/09 08:06:51;;;;;;;14.23;9.20;;;;;;;;;;5055220;28;20091;-70
2023/01/09 08:09:18;;;;;;;9.43;6.75;;;;;;;;;;5051668;28;20044;-70
2023/01/09 08:11:44;;;;;;;10.82;7.20;;;;;;;;;;5055177;28;20570;-70
2023/01/09 08:14:10;;;;;;;11.43;7.13;;;;;;;;;;5051489;28;20135;-69
2023/01/09 08:16:36;;;;;;;12.57;7.22;;;;;;;;;;5053586;28;20045;-70
2023/01/09 08:19:02;;;;;;;11.50;7.75;;;;;;;;;;5062908;28;20604;-70
2023/01/09 08:21:28;;;;;;;8.80;6.78;;;;;;;;;;5052979;28;20682;-70
2023/01/09 08:23:54;;;;;;;10.60;6.32;;;;;;;;;;5058920;28;20627;-70
2023/01/09 08:26:21;;;;;;;9.05;6.07;;;;;;;;;;5054961;28;20038;-70
2023/01/09 08:28:47;;;;;;;9.98;6.72;;;;;;;;;;5060820;28;20181;-70
2023/01/09 08:31:13;;;;;;;7.68;6.70;;;;;;;;;;5065771;28;20037;-70
2023/01/09 08:33:40;;;;;;;17.33;7.10;;;;;;;;;;5069540;28;20142;-70
2023/01/09 08:36:06;;;;;;;8.98;5.78;;;;;;;;;;5064087;28;20041;-70
2023/01/09 08:38:32;;;;;;;11.02;7.13;;;;;;;;;;5061777;28;20147;-70
2023/01/09 08:47:04;;;;;;;9.85;6.55;;;;;;;;;;5055250;28;20048;-70
2023/01/09 08:49:14;;;;;;;9.38;6.35;;;;;;;;;;5054896;28;20134;-70
2023/01/09 08:51:40;;;;;;;10.55;5.60;;;;;;;;;;5058259;28;20131;-70
2023/01/09 08:54:06;;;;;;;7.13;5.60;;;;;;;;;;5058592;28;20132;-70
2023/01/09 08:56:32;;;;;;;8.30;5.97;;;;;;;;;;5063100;28;20457;-69
2023/01/09 08:58:58;;;;;;;10.93;5.65;;;;;;;;;;5066857;28;20044;-70
2023/01/09 09:01:24;;;;;;;15.02;5.60;;;;;;;;;;5059323;28;20032;-70
2023/01/09 09:03:51;;;;;;;12.20;5.97;;;;;;;;;;5062221;28;20382;-70
2023/01/09 09:06:17;;;;;;;9.93;5.63;;;;;;;;;;5058298;28;20569;-70
2023/01/09 09:08:43;;;;;;;11.35;6.18;;;;;;;;;;5059027;28;20040;-70
2023/01/09 09:11:10;;;;;;;11.02;7.15;;;;;;;;;;5073397;28;20040;-70
2023/01/09 09:13:36;;;;;;;10.25;5.88;;;;;;;;;;5056706;28;20123;-70
2023/01/09 09:16:02;;;;;;;8.63;5.82;;;;;;;;;;5057092;28;20103;-70
2023/01/09 09:18:28;;;;;;;7.68;5.50;;;;;;;;;;5058824;28;20052;-70
2023/01/09 09:20:54;;;;;;;14.57;7.07;;;;;;;;;;5054604;28;20479;-70
2023/01/09 09:23:22;;;;;;;9.68;5.47;;;;;;;;;;5057954;28;20257;-70
2023/01/09 09:25:48;;;;;;;12.00;6.10;;;;;;;;;;5061930;28;20087;-70
2023/01/09 09:28:14;;;;;;;10.82;6.90;;;;;;;;;;5058626;28;20564;-70
2023/01/09 09:30:41;;;;;;;7.80;5.65;;;;;;;;;;5061370;28;20040;-70
2023/01/09 09:33:07;;;;;;;13.27;5.45;;;;;;;;;;5060006;28;20049;-70
2023/01/09 09:35:34;;;;;;;10.93;6.57;;;;;;;;;;5056845;28;20040;-70
2023/01/09 09:38:01;;;;;;;15.60;6.90;;;;;;;;;;5061861;28;20490;-70
2023/01/09 09:40:37;;;;;;;10.68;7.10;;;;;;;;;;5056996;28;20494;-70
2023/01/09 09:46:06;;;;;;;;;;;;;;;;;;5065198;28;20475;-72
2023/01/09 09:48:32;;;;;;;7.15;4.60;;;;;;;;;;5062887;28;20379;-71
2023/01/09 09:51:01;;;;;;;7.95;5.47;;;;;;;;;;5057049;28;20040;-70
2023/01/09 09:53:38;;;;;;;11.40;5.47;;;;;;;;;;5057184;28;20048;-70
2023/01/09 09:56:04;;;;;;;8.95;5.40;;;;;;;;;;5062724;28;20060;-70
2023/01/09 09:58:42;;;;;;;7.50;5.95;;;;;;;;;;5062235;28;20051;-70
2023/01/09 10:01:08;;;;;;;10.88;6.13;;;;;;;;;;5065156;28;20040;-70
2023/01/09 10:03:41;;;;;;;10.25;5.60;;;;;;;;;;5074829;28;20035;-70
2023/01/09 10:06:09;;;;;;;10.25;5.47;;;;;;;;;;5056636;28;20045;-70
2023/01/09 10:08:41;;;;;;;8.85;5.30;;;;;;;;;;5070076;28;20056;-70
2023/01/09 10:11:28;;;;;;;10.95;7.05;;;;;;;;;;5064253;28;20076;-70
2023/01/09 10:14:04;;;;;;;8.40;5.22;;;;;;;;;;5056032;28;20233;-70
2023/01/09 10:16:45;;;;;;;11.75;5.30;;;;;;;;;;5067200;28;20040;-70
2023/01/09 10:19:30;;;;;;;11.00;5.47;;;;;;;;;;5063929;28;20036;-70
2023/01/09 10:21:59;;;;;;;10.50;5.80;;;;;;;;;;5061602;28;20509;-70
2023/01/09 10:24:37;;;;;;;8.50;5.55;;;;;;;;;;5066784;28;20036;-70
2023/01/09 10:27:12;;;;;;;10.30;5.13;;;;;;;;;;5064955;28;20040;-71
2023/01/09 10:29:52;;;;;;;10.40;6.35;;;;;;;;;;5060384;28;20075;-70
2023/01/09 10:32:18;;;;;;;9.48;5.47;;;;;;;;;;5054570;28;20071;-70
2023/01/09 10:34:45;;;;;;;10.57;5.32;;;;;;;;;;5061166;28;20093;-70
2023/01/09 10:37:15;;;;;;;7.43;5.30;;;;;;;;;;5059164;28;20037;-70
2023/01/09 10:39:44;;;;;;;10.70;5.97;;;;;;;;;;5058834;28;20048;-70
2023/01/09 10:42:30;;;;;;;9.88;6.25;;;;;;;;;;5066316;28;20032;-70
2023/01/09 10:45:02;;;;;;;12.27;5.53;;;;;;;;;;5066801;28;20043;-70
2023/01/09 10:47:39;;;;;;;9.48;5.57;;;;;;;;;;5062973;28;20046;-70
2023/01/09 10:50:17;;;;;;;11.07;5.68;;;;;;;;;;5059099;28;20040;-70
2023/01/09 10:52:43;;;;;;;7.45;5.40;;;;;;;;;;5057694;28;20468;-70
2023/01/09 10:55:18;;;;;;;10.52;5.10;;;;;;;;;;5058133;28;20055;-70
2023/01/09 10:57:45;;;;;;;8.07;4.18;;;;;;;;;;5058520;28;20197;-70
2023/01/09 11:00:16;;;;;;;16.42;5.85;;;;;;;;;;5053369;28;20049;-70
2023/01/09 11:02:42;;;;;;;10.63;5.50;;;;;;;;;;5053841;28;20071;-70
2023/01/09 11:05:11;;;;;;;12.05;5.70;;;;;;;;;;5059947;28;20075;-70
2023/01/09 11:07:41;;;;;;;17.95;5.40;;;;;;;;;;5052893;28;20029;-70
2023/01/09 11:10:10;;;;;;;8.80;5.45;;;;;;;;;;5054850;28;20534;-70
2023/01/09 11:12:37;;;;;;;8.73;5.63;;;;;;;;;;5052848;28;20054;-70
2023/01/09 11:15:15;;;;;;;8.23;5.35;;;;;;;;;;5056282;28;20534;-70
2023/01/09 11:17:42;;;;;;;8.20;5.20;;;;;;;;;;5053088;28;20033;-70
2023/01/09 11:20:20;;;;;;;10.68;5.50;;;;;;;;;;5063789;28;20406;-70
2023/01/09 11:22:47;;;;;;;9.25;6.20;;;;;;;;;;5059613;28;20086;-70
2023/01/09 11:25:14;;;;;;;11.18;5.95;;;;;;;;;;5055686;28;20071;-70
2023/01/09 11:27:41;;;;;;;9.48;4.95;;;;;;;;;;5054832;28;20101;-70
2023/01/09 11:30:25;;;;;;;10.23;5.28;;;;;;;;;;5060017;28;20103;-70
2023/01/09 11:32:51;;;;;;;11.63;5.68;;;;;;;;;;5054556;28;20048;-71
2023/01/09 11:35:26;;;;;;;11.15;5.57;;;;;;;;;;5059729;28;20249;-70
2023/01/09 11:38:06;;;;;;;9.15;5.63;;;;;;;;;;5057742;28;20044;-70
2023/01/09 11:40:36;;;;;;;9.90;6.18;;;;;;;;;;5058890;28;20041;-70
2023/01/09 11:43:04;;;;;;;12.07;6.22;;;;;;;;;;5051833;28;20115;-70
2023/01/09 11:45:31;;;;;;;10.13;6.35;;;;;;;;;;5059190;28;20064;-70
2023/01/09 11:47:58;;;;;;;14.05;5.95;;;;;;;;;;5060284;28;20405;-70
2023/01/09 11:50:25;;;;;;;12.82;5.75;;;;;;;;;;5061733;28;20049;-70
2023/01/09 11:53:12;;;;;;;10.60;6.07;;;;;;;;;;5064011;28;20041;-70
2023/01/09 11:55:38;;;;;;;11.50;6.60;;;;;;;;;;5058449;28;20082;-70
2023/01/09 11:58:04;;;;;;;15.13;7.00;;;;;;;;;;5060157;28;20057;-70
2023/01/09 12:00:38;;;;;;;14.32;5.93;;;;;;;;;;5059407;28;20263;-70
2023/01/09 12:03:23;;;;;;;11.77;6.05;;;;;;;;;;5057312;28;20076;-70
2023/01/09 12:05:54;;;;;;;9.98;6.03;;;;;;;;;;5062516;28;20036;-70
2023/01/09 12:08:27;;;;;;;12.48;6.28;;;;;;;;;;5050065;28;20039;-70
2023/01/09 12:10:53;;;;;;;;;;;;;;;;;;5056142;28;20398;-70
2023/01/09 12:13:35;;;;;;;10.02;5.63;;;;;;;;;;5059533;28;19916;-70
2023/01/09 12:16:10;;;;;;;10.98;5.93;;;;;;;;;;5053284;28;20155;-70
2023/01/09 12:18:42;;;;;;;10.82;6.53;;;;;;;;;;5052795;28;20043;-70
2023/01/09 12:21:16;;;;;;;10.88;6.57;;;;;;;;;;5036137;28;20028;-70
2023/01/09 12:23:58;;;;;;;12.45;6.53;;;;;;;;;;5047827;28;20044;-70
2023/01/09 12:26:36;;;;;;;11.00;7.28;;;;;;;;;;5055163;28;20583;-70
2023/01/09 12:29:11;;;;;;;13.82;7.65;;;;;;;;;;5055630;28;20118;-70
2023/01/09 12:31:40;;;;;;;12.50;8.00;;;;;;;;;;5055089;28;20041;-70
2023/01/09 12:34:16;;;;;;;12.70;8.10;;;;;;;;;;5059226;28;20043;-70
2023/01/09 12:36:48;;;;;;;13.77;8.57;;;;;;;;;;5034679;28;20045;-71
2023/01/09 12:39:26;;;;;;;10.32;7.85;;;;;;;;;;5058309;28;20040;-71
2023/01/09 12:42:08;;;;;;;13.35;7.88;;;;;;;;;;5051618;28;20271;-70
2023/01/09 12:44:34;;;;;;;12.65;8.10;;;;;;;;;;5055877;28;20119;-70
2023/01/09 12:47:14;;;;;;;12.38;8.48;;;;;;;;;;5060726;28;20050;-70
2023/01/09 12:49:53;;;;;;;12.40;7.85;;;;;;;;;;5058003;28;20115;-70
2023/01/09 12:52:22;;;;;;;14.20;9.05;;;;;;;;;;5055667;28;20045;-70
2023/01/09 12:54:52;;;;;;;17.45;8.57;;;;;;;;;;5059468;28;20175;-71
2023/01/09 12:57:24;;;;;;;15.90;7.60;;;;;;;;;;5054163;28;20104;-70
2023/01/09 12:59:53;;;;;;;17.23;8.68;;;;;;;;;;5056706;28;20049;-71
2023/01/09 13:02:19;;;;;;;10.15;6.95;;;;;;;;;;5048739;28;20494;-70
2023/01/09 13:05:05;;;;;;;13.60;6.78;;;;;;;;;;5053222;28;20043;-71
2023/01/09 13:07:43;;;;;;;12.02;7.18;;;8.70;99.90;;;;;;5056759;28;20044;-71
2023/01/09 13:10:15;;;;;;;12.43;6.63;;;;;;;;;;5056464;28;20390;-71
2023/01/09 13:12:43;;;;;;;9.95;6.57;;;;;;;;;;5052361;28;20083;-71
2023/01/09 13:15:26;;;;;;;10.27;6.70;;;;;;;;;;5055561;28;20524;-71
2023/01/09 13:18:07;;;;;;;9.20;6.82;;;;;;;;;;5056429;28;20041;-71
2023/01/09 13:20:42;;;;;;;10.25;6.78;;;;;;;;;;5058276;28;20314;-70
2023/01/09 13:23:10;;;;;;;10.48;5.93;;;;;;;;;;5058168;28;20076;-71
2023/01/09 13:25:40;;;;;;;8.13;5.32;;;;;;;;;;5056334;28;20448;-70
2023/01/09 13:28:18;;;;;;;12.38;6.07;;;;;;;;;;5057216;28;20479;-72
2023/01/09 13:30:56;;;;;;;10.93;5.80;;;;;;;;;;5057718;28;20029;-71
2023/01/09 13:33:30;;;;;;;11.15;5.05;;;;;;;;;;5074544;28;20041;-71
2023/01/09 13:35:57;;;;;;;13.20;4.53;;;;;;;;;;5058996;28;20047;-71
2023/01/09 13:38:25;;;;;;;12.45;4.03;;;;;;;;;;5057711;28;20036;-71
2023/01/09 13:42:34;;;;;;;7.25;3.20;;;;;;;;;;5039556;28;20045;-71
2023/01/09 13:44:00;;;;;;;16.95;5.30;;;;;;;;;;5063138;28;20458;-70
2023/01/09 13:46:52;;;;;;;8.55;3.97;;;;;;;;;;5060642;28;20642;-71
2023/01/09 13:49:37;;;;;;;14.37;3.47;;;;;;;;;;5054142;28;20503;-71
2023/01/09 13:52:05;;;;;;;11.77;4.22;;;;;;;;;;5057987;28;20465;-71
2023/01/09 13:54:46;;;;;;;10.43;4.15;;;;;;;;;;5047950;28;20178;-71
2023/01/09 13:57:19;;;;;;;13.05;3.90;;;;;;;;;;5058404;28;20406;-71
2023/01/09 13:59:47;;;;;;;12.35;4.10;;;;;;;;;;5053146;28;20498;-71
2023/01/09 14:02:33;;;;;;;10.23;3.50;;;;;;;;;;5059574;28;20346;-71
2023/01/09 14:04:59;;;;;;;10.15;4.63;;;;;;;;;;5046370;28;20049;-71
2023/01/09 14:07:27;;;;;;;9.02;3.28;;;;;;;;;;5042379;28;20041;-71
2023/01/09 14:10:01;;;;;;;7.07;4.15;;;;;;;;;;5056023;28;20119;-70
2023/01/09 14:12:28;;;;;;;8.68;3.95;;;;;;;;;;5058072;28;20072;-70
2023/01/09 14:14:56;;;;;;;10.30;3.50;;;;;;;;;;5059916;28;20064;-70
2023/01/09 14:17:31;;;;;;;10.65;3.95;;;;;;;;;;5061341;28;20063;-71
2023/01/09 14:19:58;;;;;;;12.60;4.55;;;;;;;;;;5058834;28;20090;-70
2023/01/09 14:22:35;;;;;;;8.55;3.97;;;;;;;;;;5060473;28;20544;-71
2023/01/09 14:25:03;;;;;;;7.63;3.38;;;;;;;;;;5060282;28;20452;-71
2023/01/09 14:27:48;;;;;;;13.10;4.05;;;;;;;;;;5050657;28;20040;-71
2023/01/09 14:30:26;;;;;;;14.68;4.22;;;;;;;;;;5052347;28;20044;-70
2023/01/09 14:33:02;;;;;;;11.73;3.67;;;;;;;;;;5061126;28;20040;-71
2023/01/09 14:35:34;;;;;;;12.05;4.07;;;;;;;;;;5059359;28;20032;-70
2023/01/09 14:38:13;;;;;;;13.88;4.43;;;;;;;;;;5060066;28;20510;-71
2023/01/09 14:40:44;;;;;;;8.45;3.05;;;;;;;;;;5055277;28;20050;-71
2023/01/09 14:43:22;;;;;;;15.82;5.55;;;;;;;;;;5060342;28;20067;-70
2023/01/09 14:45:49;;;;;;;6.88;2.95;;;;;;;;;;5060492;28;20051;-70
2023/01/09 14:48:16;;;;;;;6.18;2.70;;;;;;;;;;5053510;28;20036;-70
2023/01/09 14:50:54;;;;;;;8.70;3.50;;;8.70;99.90;;;;;;5060379;28;20170;-71
2023/01/09 14:53:35;;;;;;;10.52;3.42;;;8.10;99.90;;;;;;5060822;28;20068;-71
2023/01/09 14:56:05;;;;;;;6.70;2.35;;;8.10;99.90;;;;;;5057604;28;20141;-71
2023/01/09 14:58:37;;;;;;;7.80;3.53;;;8.00;99.90;;;;;;5052179;28;20510;-69
2023/01/09 15:01:09;;;;;;;12.10;3.88;;;8.00;99.90;;;;;;5035920;28;20048;-71